Tiempo atmosférico en la estación meteorológica de Agüimes, Las Palmas (306 m.)



Fecha
DESCASC
Temp. máxima en grados centígrados (hora)
DESCASC
Temp. mínima en grados centígrados (hora)
DESCASC
Temp. media en grados centígrados
DESCASC
Racha de viento máxima en m/sg (hora)
DESCASC
Velocidad máxima media en intervalos de 10 minutos(hora)
DESCASC
Precipitaciones diarias en mm
DESCASC
Precipitaciones de 00:00 a 06:00 en mm
DESCASC
Precipitaciones de 06:00 a 12:00 en mm
DESCASC
Precipitaciones de 12:00 a 18:00 en mm
DESCASC
Precipitaciones de 18:00 a 24:00 en mm
DESCASC
18-04-2019 20.6 (15:00) 15.1 (04:00) 17.9 16.67 (15:40) 11.67 (16:30) 0 0 0 0 0
17-04-2019 19.6 (10:40) 14.6 (07:40) 17.1 12.22 (23:59) 8.33 (23:40) 0 0 0 0 0
16-04-2019 22.2 (15:30) 14.2 (00:00) 18.2 11.39 (00:50) 8.33 (00:40) 0 0 0 0 0
15-04-2019 23 (15:30) 13.3 (00:00) 18.2 15.28 (11:40) 10 (12:50) 0 0 0 0 0
14-04-2019 23.4 (16:10) 14.8 (00:00) 19.1 11.39 (04:10) 7.22 (03:50) 0 0 0 0 0
13-04-2019 23.1 (16:00) 14.6 (00:00) 18.9 17.78 (04:20) 11.39 (01:40) 0 0 0 0 0
12-04-2019 21.3 (16:00) 14.3 (00:00) 17.8 18.33 (03:50) 12.78 (13:10) 0 0 0 0 0
11-04-2019 20.7 (15:30) 14.1 (00:00) 17.4 17.5 (16:40) 11.94 (13:10) 0 0 0 0 0
10-04-2019 20.7 (14:20) 13.8 (00:00) 17.3 18.61 (10:30) 13.33 (10:20) 0 0 0 0 0
09-04-2019 21.4 (12:50) 13.4 (00:00) 17.4 14.44 (13:30) 10 (13:10) 0 0 0 0 0
08-04-2019 19.6 (13:20) 13.7 (00:00) 16.7 11.67 (11:20) 8.33 (18:50) 0 0 0 0 0
07-04-2019 20.7 (11:10) 13.5 (00:00) 17.1 10.28 (11:50) 6.67 (01:00) 0 0 0 0 0
06-04-2019 19.9 (15:40) 13.4 (00:00) 16.6 16.67 (14:00) 10.56 (14:00) 0.2 0.2 0 0 0
05-04-2019 -- (--) -- (--) -- -- (--) -- (--) -- 0 0 -- 0
04-04-2019 20 (14:50) 11.8 (00:00) 15.9 13.61 (15:30) 8.61 (17:20) 1.8 1.8 0 0 0
03-04-2019 18.9 (15:00) 14.2 (00:00) 16.5 7.22 (15:30) 4.72 (13:30) 16.4 0 8.8 7.6 0
02-04-2019 21.7 (15:20) 13.3 (00:00) 17.5 6.11 (13:30) 3.61 (13:50) 0 0 0 0 0
01-04-2019 19 (12:20) 12.8 (00:00) 15.9 6.67 (00:40) 4.44 (00:10) 1.8 0 0.2 1.4 0.2
31-03-2019 19.7 (12:40) 11.2 (00:00) 15.5 7.22 (12:50) 4.17 (12:10) 1.2 0 0 1.2 0
30-03-2019 19.1 (11:30) 11.7 (00:00) 15.4 9.17 (11:40) 6.11 (11:50) 13.2 0 0 13.2 0
29-03-2019 18.8 (11:20) 11.8 (00:00) 15.3 9.17 (15:10) 6.39 (16:10) 3.6 0 0 3.6 0
28-03-2019 18.8 (11:20) 12.7 (00:00) 15.7 6.67 (01:50) 4.72 (02:00) 4.2 0 0 2.6 1.6
27-03-2019 18.6 (10:50) 12.2 (00:00) 15.4 8.89 (12:00) 5.83 (12:00) 54.6 0 0.4 54.2 0
26-03-2019 18.5 (10:40) 11.5 (00:00) 15 7.22 (12:00) 4.72 (12:00) 3 0 0.2 2.6 0.2
25-03-2019 19.4 (12:50) 12.1 (00:00) 15.8 9.72 (11:40) 7.22 (11:30) 7 0 0 7 0
24-03-2019 21.2 (13:50) 13.1 (00:00) 17.2 12.5 (00:30) 8.61 (00:20) 0 0 0 0 0
23-03-2019 21.1 (13:50) 14.6 (00:00) 17.9 20.28 (05:20) 14.44 (05:20) 0 0 0 0 0
22-03-2019 22.1 (14:20) 14.2 (00:00) 18.2 22.5 (20:20) 15 (21:00) 0 0 0 0 0
21-03-2019 24 (13:40) 14.4 (00:00) 19.2 17.5 (22:50) 12.5 (21:30) 0 0 0 0 0

Gráficas

Temp. máximas Temp. mínimas Temp. medias Precipitaciones Rachas de viento máximas Velocidades máximas media en intervalos de 10 minutos

Datos horarios

Fecha y hora oficial Temperatura (ºC) Velocidad del viento (km/h) Dirección del viento Racha (km/h) Dirección de racha Precipitación (mm) Presión (hPa) Tendencia (hPa) Humedad (%)
2019-04-19 23:00:00 15.1 13 Norte 24 Norte 0 -- -- 58
2019-04-19 22:00:00 15.4 11 Norte 37 Norte 0 -- -- 59
2019-04-19 21:00:00 16 21 Norte 42 Norte 0 -- -- 57
2019-04-19 20:00:00 16.5 25 Norte 46 Norte 0 -- -- 57
2019-04-19 19:00:00 18.1 35 Norte 59 Norte 0 -- -- 57
2019-04-19 18:00:00 19.6 34 Norte 56 Norte 0 -- -- 54
2019-04-19 17:00:00 20.1 36 Norte 58 Norte 0 -- -- 53
2019-04-19 16:00:00 20.6 39 Norte 57 Norte 0 -- -- 49
2019-04-19 15:00:00 21.1 35 Norte 57 Norte 0 -- -- 51
2019-04-19 14:00:00 21 39 Norte 59 Nordeste 0 -- -- 53
2019-04-19 13:00:00 20.3 34 Norte 58 Norte 0 -- -- 50
2019-04-19 12:00:00 18.8 39 Norte 54 Norte 0 -- -- 55
2019-04-19 11:00:00 17.7 37 Norte 54 Norte 0 -- -- 56
2019-04-19 10:00:00 16.6 37 Norte 59 Norte 0 -- -- 59
2019-04-19 09:00:00 15.6 28 Norte 56 Norte 0 -- -- 66
2019-04-19 08:00:00 14.8 36 Norte 58 Norte 0 -- -- 66
2019-04-19 07:00:00 14.6 35 Norte 57 Norte 0 -- -- 69
2019-04-19 06:00:00 15.4 35 Norte 64 Norte 0 -- -- 69
2019-04-19 05:00:00 15 34 Norte 65 Norte 0 -- -- 64
2019-04-19 04:00:00 14.7 40 Norte 57 Norte 0 -- -- 70
2019-04-19 03:00:00 15 30 Norte 59 Norte 0 -- -- 71
2019-04-19 02:00:00 15 34 Norte 54 Norte 0 -- -- 69
2019-04-19 01:00:00 15.4 23 Norte 46 Noroeste 0 -- -- 66
2019-04-19 00:00:00 15.7 24 Norte 43 Norte 0 -- -- 60
2019-04-18 23:00:00 15.2 24 Norte 45 Norte 0 -- -- 63
2019-04-18 22:00:00 15.8 28 Norte 47 Norte 0 -- -- 66
2019-04-18 21:00:00 15.6 29 Norte 47 Norte 0 -- -- 64
2019-04-18 20:00:00 16.3 27 Norte 47 Norte 0 -- -- 61
2019-04-18 19:00:00 17.4 33 Norte 50 Norte 0 -- -- 55
2019-04-18 18:00:00 18.8 32 Norte 53 Norte 0 -- -- 54
2019-04-18 17:00:00 19.5 36 Norte 59 Norte 0 -- -- 55
2019-04-18 16:00:00 20.2 35 Norte 60 Norte 0 -- -- 56
2019-04-18 15:00:00 20.6 38 Norte 53 Nordeste 0 -- -- 54
2019-04-18 14:00:00 18 27 Norte 46 Nordeste 0 -- -- 66
2019-04-18 13:00:00 19.2 36 Norte 50 Norte 0 -- -- 60
2019-04-18 12:00:00 18.8 29 Norte 45 Norte 0 -- -- 57
2019-04-18 11:00:00 18.4 23 Norte 42 Norte 0 -- -- 61
2019-04-18 10:00:00 17.6 23 Norte 43 Norte 0 -- -- 58
2019-04-18 09:00:00 16.6 28 Norte 41 Norte 0 -- -- 68
2019-04-18 08:00:00 15.3 20 Norte 36 Norte 0 -- -- 71
2019-04-18 07:00:00 15.3 21 Norte 36 Norte 0 -- -- 69
2019-04-18 06:00:00 15.5 18 Norte 35 Norte 0 -- -- 60
2019-04-18 05:00:00 15.3 23 Norte 36 Norte 0 -- -- 63
2019-04-18 04:00:00 15.1 25 Norte 37 Norte 0 -- -- 69
2019-04-18 03:00:00 15.5 25 Norte 37 Norte 0 -- -- 66
2019-04-18 02:00:00 15.6 27 Norte 43 Norte 0 -- -- 65
2019-04-18 01:00:00 16.4 17 Norte 40 Norte 0 -- -- 62
2019-04-18 00:00:00 16 28 Norte 44 Norte 0 -- -- 63
2019-04-17 23:00:00 15.9 22 Norte 32 Norte 0 -- -- 74
2019-04-17 22:00:00 16.4 0 Calma 5 Oeste 0 -- -- 85
2019-04-17 21:00:00 16.5 3 Sudoeste 7 Sudoeste 0 -- -- 84
2019-04-17 20:00:00 16.7 3 Este 6 Nordeste 0 -- -- 86
2019-04-17 19:00:00 16.7 0 Calma 15 Nordeste 0 -- -- 87
2019-04-17 18:00:00 17.2 10 Nordeste 16 Norte 0 -- -- 84
2019-04-17 17:00:00 17.8 3 Sudeste 11 Sur 0 -- -- 77
2019-04-17 16:00:00 17.8 5 Este 12 Este 0 -- -- 76
2019-04-17 15:00:00 17.9 6 Sudeste 13 Sur 0 -- -- 73
2019-04-17 14:00:00 18 10 Sudeste 16 Sur 0 -- -- 73
2019-04-17 13:00:00 19.2 6 Sur 19 Sur 0 -- -- 68
2019-04-17 12:00:00 18.9 9 Sudeste 18 Sudeste 0 -- -- 69
2019-04-17 11:00:00 19.2 9 Sudeste 16 Sudeste 0 -- -- 65
2019-04-17 10:00:00 18.5 4 Sur 9 Sudeste 0 -- -- 67
2019-04-17 09:00:00 16.6 3 Sudeste 5 Sudeste 0 -- -- 77
2019-04-17 08:00:00 14.8 3 Noroeste 4 Noroeste 0 -- -- 84
2019-04-17 07:00:00 15 0 Calma 5 Norte 0 -- -- 81
2019-04-17 06:00:00 16 3 Norte 10 Norte 0 -- -- 77
2019-04-17 05:00:00 16 5 Norte 11 Nordeste 0 -- -- 78
2019-04-17 04:00:00 16.1 3 Nordeste 8 Sur 0 -- -- 83
2019-04-17 03:00:00 16.3 5 Sur 7 Sur 0 -- -- 87
2019-04-17 02:00:00 16.4 2 Sur 5 Norte 0 -- -- 86
2019-04-17 01:00:00 16.4 4 Nordeste 8 Nordeste 0 -- -- 87
2019-04-17 00:00:00 16.6 2 Norte 12 Oeste 0 -- -- 85
2019-04-16 23:00:00 16.6 6 Sur 9 Sur 0 -- -- 86
2019-04-16 22:00:00 16.3 5 Nordeste 10 Nordeste 0 -- -- 84
2019-04-16 21:00:00 17.1 7 Nordeste 13 Nordeste 0 -- -- 82
2019-04-16 20:00:00 18.1 5 Sur 13 Sur 0 -- -- 76
2019-04-16 19:00:00 19.4 6 Sudeste 19 Sudoeste 0 -- -- 73
2019-04-16 18:00:00 20.1 8 Este 16 Sudeste 0 -- -- 71
2019-04-16 17:00:00 20.3 10 Nordeste 16 Este 0 -- -- 68
2019-04-16 16:00:00 21.1 11 Este 24 Este 0 -- -- 67
2019-04-16 15:00:00 21.4 6 Este 18 Este 0 -- -- 65
2019-04-16 14:00:00 21.1 7 Este 21 Nordeste 0 -- -- 66
2019-04-16 13:00:00 20.8 12 Este 26 Nordeste 0 -- -- 64
2019-04-16 12:00:00 21 17 Nordeste 26 Este 0 -- -- 63
2019-04-16 11:00:00 20.2 17 Nordeste 27 Nordeste 0 -- -- 65
2019-04-16 10:00:00 18.1 16 Norte 30 Norte 0 -- -- 70
2019-04-16 09:00:00 16.4 21 Norte 31 Norte 0 -- -- 74
2019-04-16 08:00:00 14.8 18 Norte 28 Norte 0 -- -- 79
2019-04-16 07:00:00 15 16 Norte 31 Norte 0 -- -- 78
2019-04-16 06:00:00 15.3 19 Norte 36 Norte 0 -- -- 79
2019-04-16 05:00:00 15.3 23 Norte 33 Norte 0 -- -- 79
2019-04-16 04:00:00 15.2 18 Norte 29 Norte 0 -- -- 80
2019-04-16 03:00:00 15.5 21 Norte 33 Norte 0 -- -- 78
2019-04-16 02:00:00 15.6 19 Norte 33 Norte 0 -- -- 78
2019-04-16 01:00:00 16 23 Norte 41 Norte 0 -- -- 77
2019-04-16 00:00:00 16.4 22 Norte 38 Norte 0 -- -- 70
2019-04-15 23:00:00 16.8 22 Norte 35 Norte 0 -- -- 70
2019-04-15 22:00:00 17.3 21 Norte 35 Norte 0 -- -- 70
2019-04-15 21:00:00 17.4 22 Norte 35 Norte 0 -- -- 70
2019-04-15 20:00:00 18.2 26 Norte 40 Nordeste 0 -- -- 66
2019-04-15 19:00:00 20.2 26 Nordeste 40 Nordeste 0 -- -- 59
2019-04-15 18:00:00 21 27 Nordeste 42 Norte 0 -- -- 57
2019-04-15 17:00:00 22.7 26 Nordeste 43 Nordeste 0 -- -- 50
2019-04-15 16:00:00 22.6 31 Nordeste 46 Nordeste 0 -- -- 51
2019-04-15 15:00:00 22 34 Nordeste 55 Nordeste 0 -- -- 58
2019-04-15 14:00:00 21.3 33 Nordeste 51 Nordeste 0 -- -- 59
2019-04-15 13:00:00 21.6 34 Nordeste 54 Nordeste 0 -- -- 57
2019-04-15 12:00:00 21.4 35 Nordeste 55 Nordeste 0 -- -- 56
2019-04-15 11:00:00 20 32 Norte 50 Norte 0 -- -- 58
2019-04-15 10:00:00 18.4 12 Norte 26 Norte 0 -- -- 65
2019-04-15 09:00:00 15.3 4 Oeste 12 Oeste 0 -- -- 87
2019-04-15 08:00:00 13.5 3 Norte 8 Norte 0 -- -- 89
2019-04-15 07:00:00 13.4 4 Noroeste 5 Noroeste 0 -- -- 88
2019-04-15 06:00:00 13.5 3 Noroeste 20 Norte 0 -- -- 86
2019-04-15 05:00:00 14.2 5 Norte 9 Norte 0 -- -- 88
2019-04-15 04:00:00 14.4 0 Calma 6 Oeste 0 -- -- 87
2019-04-15 03:00:00 14.8 4 Oeste 5 Norte 0 -- -- 86
2019-04-15 02:00:00 14.9 6 Noroeste 10 Norte 0 -- -- 83
2019-04-15 01:00:00 15.8 3 Sudoeste 14 Sudoeste 0 -- -- 79
2019-04-15 00:00:00 17 8 Sudoeste 19 Norte 0 -- -- 79
2019-04-14 23:00:00 17.2 6 Nordeste 10 Nordeste 0 -- -- 77
2019-04-14 22:00:00 17.1 6 Sur 13 Sur 0 -- -- 81
2019-04-14 21:00:00 17.5 9 Sur 20 Sudoeste 0 -- -- 79
2019-04-14 20:00:00 18.1 14 Sudoeste 21 Sur 0 -- -- 76
2019-04-14 19:00:00 19.5 13 Sudoeste 27 Sudoeste 0 -- -- 72
2019-04-14 18:00:00 20.9 8 Sur 23 Este 0 -- -- 66
2019-04-14 17:00:00 22.1 18 Este 27 Este 0 -- -- 62
2019-04-14 16:00:00 23.1 16 Nordeste 29 Este 0 -- -- 60
2019-04-14 15:00:00 23.2 17 Nordeste 25 Nordeste 0 -- -- 60
2019-04-14 14:00:00 23.2 13 Nordeste 24 Este 0 -- -- 58
2019-04-14 13:00:00 22.2 15 Este 22 Este 0 -- -- 60
2019-04-14 12:00:00 22.7 10 Este 15 Este 0 -- -- 58
2019-04-14 11:00:00 20.6 8 Sudeste 15 Sudeste 0 -- -- 61
2019-04-14 10:00:00 18.5 3 Sudeste 8 Sur 0 -- -- 54
2019-04-14 09:00:00 17.3 4 Nordeste 9 Oeste 0 -- -- 46
2019-04-14 08:00:00 15.1 4 Oeste 22 Norte 0 -- -- 42
2019-04-14 07:00:00 18.1 16 Norte 35 Norte 0 -- -- 27
2019-04-14 06:00:00 17.2 20 Norte 38 Norte 0 -- -- 27
2019-04-14 05:00:00 17.5 22 Norte 41 Norte 0 -- -- 26
2019-04-14 04:00:00 18.1 24 Norte 40 Norte 0 -- -- 25
2019-04-14 03:00:00 16.9 15 Norte 29 Norte 0 -- -- 37
2019-04-14 02:00:00 14.9 20 Nordeste 32 Norte 0 -- -- 65
2019-04-14 01:00:00 19.7 15 Norte 36 Norte 0 -- -- 25
2019-04-14 00:00:00 17.7 21 Norte 38 Norte 0 -- -- 36
2019-04-13 23:00:00 18.1 17 Norte 30 Norte 0 -- -- 31
2019-04-13 22:00:00 18.1 17 Norte 37 Norte 0 -- -- 32
2019-04-13 21:00:00 19 26 Norte 46 Norte 0 -- -- 34
2019-04-13 20:00:00 19.1 26 Norte 45 Norte 0 -- -- 44
2019-04-13 19:00:00 21.4 30 Norte 47 Norte 0 -- -- 40
2019-04-13 18:00:00 22.3 32 Norte 49 Nordeste 0 -- -- 35
2019-04-13 17:00:00 22.3 31 Nordeste 49 Nordeste 0 -- -- 51
2019-04-13 16:00:00 23.1 28 Nordeste 46 Nordeste 0 -- -- 49
2019-04-13 15:00:00 22.4 28 Norte 48 Norte 0 -- -- 50
2019-04-13 14:00:00 21.7 33 Norte 57 Nordeste 0 -- -- 48
2019-04-13 13:00:00 21.3 36 Nordeste 60 Nordeste 0 -- -- 51
2019-04-13 12:00:00 20.9 37 Norte 56 Nordeste 0 -- -- 51
2019-04-13 11:00:00 19.7 33 Norte 58 Norte 0 -- -- 47
2019-04-13 10:00:00 17.7 39 Norte 60 Norte 0 -- -- 55
2019-04-13 09:00:00 16.4 33 Norte 51 Norte 0 -- -- 60
2019-04-13 08:00:00 14.8 31 Norte 50 Norte 0 -- -- 69
2019-04-13 07:00:00 14.7 33 Norte 48 Norte 0 -- -- 71
2019-04-13 06:00:00 15 34 Norte 56 Norte 0 -- -- 64
2019-04-13 05:00:00 15 40 Norte 64 Norte 0 -- -- 69
2019-04-13 04:00:00 15.3 39 Norte 62 Norte 0 -- -- 63
2019-04-13 03:00:00 14.9 37 Norte 62 Norte 0 -- -- 67
2019-04-13 02:00:00 15.3 35 Norte 60 Norte 0 -- -- 65
2019-04-13 01:00:00 15 35 Norte 57 Norte 0 -- -- 65
2019-04-13 00:00:00 15.3 35 Norte 58 Norte 0 -- -- 64
2019-04-12 23:00:00 15 40 Norte 60 Norte 0 -- -- 64
2019-04-12 22:00:00 15.3 36 Norte 60 Norte 0 -- -- 63
2019-04-12 21:00:00 15.7 37 Norte 56 Norte 0 -- -- 61
2019-04-12 20:00:00 16.7 29 Norte 48 Norte 0 -- -- 58
2019-04-12 19:00:00 18.9 27 Norte 49 Norte 0 -- -- 48
2019-04-12 18:00:00 19.7 32 Norte 49 Nordeste 0 -- -- 49
2019-04-12 17:00:00 20.3 37 Norte 55 Norte 0 -- -- 51
2019-04-12 16:00:00 21.3 29 Norte 56 Norte 0 -- -- 47
2019-04-12 15:00:00 20.6 37 Norte 62 Norte 0 -- -- 49
2019-04-12 14:00:00 20.5 34 Norte 64 Norte 0 -- -- 52
2019-04-12 13:00:00 19.4 40 Norte 59 Nordeste 0 -- -- 54
2019-04-12 12:00:00 17.7 29 Norte 48 Norte 0 -- -- 70
2019-04-12 11:00:00 17.4 24 Norte 47 Norte 0 -- -- 63
2019-04-12 10:00:00 16.4 30 Norte 53 Norte 0 -- -- 62
2019-04-12 09:00:00 15.7 35 Norte 60 Norte 0 -- -- 67
2019-04-12 08:00:00 14.7 39 Norte 61 Norte 0 -- -- 65
2019-04-12 07:00:00 14.3 43 Norte 61 Norte 0 -- -- 69
2019-04-12 06:00:00 14.8 38 Norte 62 Norte 0 -- -- 70
2019-04-12 05:00:00 14.6 41 Norte 61 Norte 0 -- -- 65
2019-04-12 04:00:00 14.4 42 Norte 66 Norte 0 -- -- 67
2019-04-12 03:00:00 14.5 34 Norte 66 Norte 0 -- -- 68
2019-04-12 02:00:00 14.8 33 Norte 62 Norte 0 -- -- 66
2019-04-12 01:00:00 14.8 24 Norte 57 Norte 0 -- -- 64
2019-04-12 00:00:00 15 32 Norte 56 Norte 0 -- -- 69
2019-04-11 23:00:00 15.2 35 Norte 57 Norte 0 -- -- 69
2019-04-11 22:00:00 15.6 28 Norte 57 Norte 0 -- -- 60
2019-04-11 21:00:00 15.8 25 Norte 51 Norte 0 -- -- 58
2019-04-11 20:00:00 16.3 30 Norte 57 Norte 0 -- -- 59
2019-04-11 19:00:00 17.7 37 Norte 57 Norte 0 -- -- 59
2019-04-11 18:00:00 19.2 32 Norte 61 Norte 0 -- -- 56
2019-04-11 17:00:00 19.9 41 Norte 63 Norte 0 -- -- 53
2019-04-11 16:00:00 19.9 38 Norte 62 Nordeste 0 -- -- 54
2019-04-11 15:00:00 20.4 38 Norte 57 Norte 0 -- -- 52
2019-04-11 14:00:00 20.3 34 Norte 59 Norte 0 -- -- 51
2019-04-11 13:00:00 19.2 39 Norte 58 Norte 0 -- -- 55
2019-04-11 12:00:00 18.5 39 Norte 61 Norte 0 -- -- 55
2019-04-11 11:00:00 17.5 35 Norte 60 Norte 0 -- -- 58
2019-04-11 10:00:00 16.5 34 Norte 55 Norte 0 -- -- 60
2019-04-11 09:00:00 14.7 35 Norte 56 Norte 0 -- -- 65
2019-04-11 08:00:00 14.3 35 Norte 53 Norte 0 -- -- 66
2019-04-11 07:00:00 14.4 32 Norte 54 Norte 0 -- -- 64
2019-04-11 06:00:00 14.3 27 Norte 46 Norte 0 -- -- 68
2019-04-11 05:00:00 14.5 30 Norte 55 Norte 0 -- -- 64
2019-04-11 04:00:00 14.5 36 Norte 59 Norte 0 -- -- 64
2019-04-11 03:00:00 14.4 32 Norte 54 Norte 0 -- -- 63
2019-04-11 02:00:00 14.5 36 Norte 51 Norte 0 -- -- 65
2019-04-11 01:00:00 14.4 28 Norte 50 Norte 0 -- -- 66
2019-04-11 00:00:00 14.6 26 Norte 43 Norte 0 -- -- 69
2019-04-10 23:00:00 15.5 21 Norte 53 Norte 0 -- -- 64
2019-04-10 22:00:00 15.8 23 Norte 49 Norte 0 -- -- 63
2019-04-10 21:00:00 15.2 31 Norte 52 Norte 0 -- -- 67
2019-04-10 20:00:00 16.2 32 Norte 53 Norte 0 -- -- 63
2019-04-10 19:00:00 17.6 39 Norte 62 Norte 0 -- -- 62
2019-04-10 18:00:00 18.8 42 Norte 60 Norte 0 -- -- 54
2019-04-10 17:00:00 19.5 40 Norte 59 Norte 0 -- -- 52
2019-04-10 16:00:00 19.9 40 Norte 60 Norte 0 -- -- 50
2019-04-10 15:00:00 20 41 Norte 62 Norte 0 -- -- 54
2019-04-10 14:00:00 20.3 40 Norte 62 Norte 0 -- -- 48
2019-04-10 13:00:00 19.6 39 Norte 55 Norte 0 -- -- 52
2019-04-10 12:00:00 18.9 33 Norte 51 Norte 0 -- -- 55
2019-04-10 11:00:00 17.7 33 Norte 67 Norte 0 -- -- 52
2019-04-10 10:00:00 16.2 40 Norte 57 Nordeste 0 -- -- 60
2019-04-10 09:00:00 15.3 29 Norte 50 Norte 0 -- -- 68
2019-04-10 08:00:00 14.2 27 Norte 49 Norte 0 -- -- 73
2019-04-10 07:00:00 14.9 24 Norte 45 Norte 0 -- -- 64
2019-04-10 06:00:00 14.3 22 Norte 45 Norte 0 -- -- 68
2019-04-10 05:00:00 13.9 22 Norte 46 Norte 0 -- -- 69
2019-04-10 04:00:00 13.8 28 Norte 48 Norte 0 -- -- 70
2019-04-10 03:00:00 14 27 Norte 50 Norte 0 -- -- 71
2019-04-10 02:00:00 14.5 24 Norte 51 Norte 0 -- -- 66
2019-04-10 01:00:00 14.5 26 Norte 46 Norte 0 -- -- 70
2019-04-10 00:00:00 14.7 29 Norte 49 Norte 0 -- -- 67
2019-04-09 23:00:00 14.7 28 Norte 48 Norte 0 -- -- 68
2019-04-09 22:00:00 15 32 Norte 48 Norte 0 -- -- 66
2019-04-09 21:00:00 14.8 28 Norte 43 Norte 0 -- -- 78
2019-04-09 20:00:00 15.9 23 Norte 44 Nordeste 0 -- -- 76
2019-04-09 19:00:00 17.4 33 Norte 45 Norte 0 -- -- 72
2019-04-09 18:00:00 18.1 28 Nordeste 43 Nordeste 0 -- -- 72
2019-04-09 17:00:00 19.3 27 Norte 45 Nordeste 0 -- -- 70
2019-04-09 16:00:00 19.3 28 Norte 49 Nordeste 0 -- -- 66
2019-04-09 15:00:00 19.7 29 Norte 49 Nordeste 0 -- -- 66
2019-04-09 14:00:00 20.8 35 Norte 52 Nordeste 0 -- -- 65
2019-04-09 13:00:00 21.1 33 Nordeste 47 Nordeste 0 -- -- 66
2019-04-09 12:00:00 20.9 23 Norte 41 Nordeste 0 -- -- 61
2019-04-09 11:00:00 19.6 18 Norte 38 Noroeste 0 -- -- 58
2019-04-09 10:00:00 17.6 24 Norte 37 Norte 0 -- -- 67
2019-04-09 09:00:00 15.6 22 Norte 32 Norte 0 -- -- 70
2019-04-09 08:00:00 15.1 21 Norte 34 Norte 0 -- -- 72
2019-04-09 07:00:00 14.8 21 Norte 36 Norte 0 -- -- 72
2019-04-09 06:00:00 14.5 16 Norte 26 Norte 0 -- -- 73
2019-04-09 05:00:00 14.9 14 Norte 39 Norte 0 -- -- 68
2019-04-09 04:00:00 14.7 19 Norte 35 Norte 0 -- -- 68
2019-04-09 03:00:00 14.2 13 Norte 21 Norte 0 -- -- 65
2019-04-09 02:00:00 13.7 9 Norte 15 Norte 0 -- -- 61
2019-04-09 01:00:00 13.7 6 Noroeste 14 Noroeste 0 -- -- 80
2019-04-09 00:00:00 14.1 6 Noroeste 35 Nordeste 0 -- -- 75
2019-04-08 23:00:00 14.8 19 Norte 35 Norte 0 -- -- 66
2019-04-08 22:00:00 14.9 22 Norte 33 Norte 0 -- -- 76
2019-04-08 21:00:00 15.2 22 Norte 34 Norte 0 -- -- 76
2019-04-08 20:00:00 16.2 27 Norte 41 Norte 0 -- -- 72
2019-04-08 19:00:00 17.3 26 Norte 42 Norte 0 -- -- 69
2019-04-08 18:00:00 18.3 23 Norte 40 Norte 0 -- -- 64
2019-04-08 17:00:00 18.5 22 Norte 37 Norte 0 -- -- 64
2019-04-08 16:00:00 19.2 20 Nordeste 37 Nordeste 0 -- -- 62
2019-04-08 15:00:00 18.7 26 Norte 39 Nordeste 0 -- -- 61
2019-04-08 14:00:00 18.7 23 Nordeste 37 Nordeste 0 -- -- 66
2019-04-08 13:00:00 19.5 20 Nordeste 38 Norte 0 -- -- 64
2019-04-08 12:00:00 18.6 24 Norte 42 Norte 0 -- -- 62
2019-04-08 11:00:00 19 25 Norte 34 Nordeste 0 -- -- 63
2019-04-08 10:00:00 16.5 14 Norte 24 Nordeste 0 -- -- 77
2019-04-08 09:00:00 16.1 13 Norte 21 Norte 0 -- -- 63
2019-04-08 08:00:00 15 11 Noroeste 20 Noroeste 0 -- -- 73
2019-04-08 07:00:00 14.4 9 Noroeste 22 Norte 0 -- -- 69
2019-04-08 06:00:00 14.6 13 Norte 26 Norte 0 -- -- 71
2019-04-08 05:00:00 14.9 17 Norte 28 Norte 0 -- -- 74
2019-04-08 04:00:00 14.5 5 Norte 19 Noroeste 0 -- -- 77
2019-04-08 03:00:00 14.7 10 Norte 23 Norte 0 -- -- 76
2019-04-08 02:00:00 15 7 Norte 22 Norte 0 -- -- 71
2019-04-08 01:00:00 13.9 6 Noroeste 14 Noroeste 0 -- -- 81
2019-04-08 00:00:00 14.1 3 Norte 19 Norte 0 -- -- 78
2019-04-07 23:00:00 14.7 10 Norte 24 Norte 0 -- -- 69
2019-04-07 22:00:00 15.2 11 Norte 20 Norte 0 -- -- 72
2019-04-07 21:00:00 16.2 12 Norte 22 Norte 0 -- -- 72
2019-04-07 20:00:00 16.5 3 Sudeste 11 Sur 0 -- -- 74
2019-04-07 19:00:00 16.7 8 Sur 15 Sur 0 -- -- 73
2019-04-07 18:00:00 17.3 12 Sur 23 Sudoeste 0 -- -- 70
2019-04-07 17:00:00 17.8 12 Sur 21 Sudoeste 0 -- -- 69
2019-04-07 16:00:00 18.4 11 Sur 18 Sur 0 -- -- 65
2019-04-07 15:00:00 18.6 12 Sur 22 Sur 0 -- -- 64
2019-04-07 14:00:00 18.3 16 Sur 25 Sur 0 -- -- 64
2019-04-07 13:00:00 18.1 17 Sur 33 Sur 0 -- -- 64
2019-04-07 12:00:00 19.6 8 Norte 37 Sudeste 0 -- -- 53
2019-04-07 11:00:00 20 13 Nordeste 22 Nordeste 0 -- -- 52
2019-04-07 10:00:00 18.2 8 Este 17 Sudeste 0 -- -- 55
2019-04-07 09:00:00 16.3 9 Nordeste 17 Norte 0 -- -- 59
2019-04-07 08:00:00 13.5 12 Norte 17 Norte 0 -- -- 63
2019-04-07 07:00:00 13.7 10 Norte 26 Norte 0 -- -- 61
2019-04-07 06:00:00 14 10 Norte 24 Norte 0 -- -- 59
2019-04-07 05:00:00 14.1 14 Norte 28 Norte 0 -- -- 62
2019-04-07 04:00:00 13.7 10 Norte 27 Norte 0 -- -- 67
2019-04-07 03:00:00 14.1 16 Norte 30 Norte 0 -- -- 66
2019-04-07 02:00:00 14.1 19 Norte 36 Norte 0 -- -- 67
2019-04-07 01:00:00 14 24 Norte 34 Nordeste 0 -- -- 69
2019-04-07 00:00:00 14.1 17 Nordeste 28 Norte 0 -- -- 64
2019-04-06 23:00:00 14.3 13 Norte 34 Norte 0 -- -- 65
2019-04-06 22:00:00 14.5 23 Norte 33 Norte 0 -- -- 71
2019-04-06 21:00:00 15.1 21 Norte 48 Norte 0 -- -- 71
2019-04-06 20:00:00 16 24 Norte 40 Norte 0 -- -- 57
2019-04-06 19:00:00 17.9 16 Norte 37 Norte 0 -- -- 53
2019-04-06 18:00:00 18.3 9 Este 47 Norte 0 -- -- 57
2019-04-06 17:00:00 18.3 27 Norte 50 Norte 0 -- -- 54
2019-04-06 16:00:00 19 9 Norte 49 Norte 0 -- -- 52
2019-04-06 15:00:00 19.5 36 Norte 55 Norte 0 -- -- 47
2019-04-06 14:00:00 19.2 38 Norte 60 Norte 0 -- -- 53
2019-04-06 13:00:00 18.4 31 Norte 42 Norte 0 -- -- 60
2019-04-06 12:00:00 16 25 Norte 38 Norte 0 -- -- 68
2019-04-06 11:00:00 17.1 22 Norte 41 Norte 0 -- -- 58
2019-04-06 10:00:00 16.3 23 Norte 40 Norte 0 -- -- 56
2019-04-06 09:00:00 14.7 18 Norte 31 Norte 0 -- -- 69
2019-04-06 08:00:00 13.9 19 Norte 36 Norte 0 -- -- 72
2019-04-06 07:00:00 14 8 Noroeste 31 Oeste 0 -- -- 64
2019-04-06 06:00:00 14.2 14 Noroeste 42 Norte 0 -- -- 51
2019-04-06 05:00:00 13.7 13 Nordeste 25 Nordeste 0 -- -- 67
2019-04-06 04:00:00 13.8 11 Norte 44 Norte 0 -- -- 70
2019-04-06 03:00:00 13.5 35 Norte 55 Norte 0 -- -- 76
2019-04-06 02:00:00 14.2 30 Norte 44 Norte 0 -- -- 73
2019-04-06 01:00:00 13.8 24 Norte 46 Norte 0.2 -- -- 77
2019-04-06 00:00:00 14.8 20 Norte 42 Norte 0 -- -- 67
2019-04-05 23:00:00 15 22 Norte 39 Noroeste 0 -- -- 69
2019-04-05 22:00:00 15.5 22 Norte 37 Norte 0 -- -- 62
2019-04-05 21:00:00 15.9 19 Norte 41 Norte 0 -- -- 66
2019-04-05 20:00:00 16.6 23 Norte 36 Norte 0 -- -- 66
2019-04-05 19:00:00 18.4 5 Norte 17 Sudoeste 0 -- -- 62
2019-04-05 18:00:00 17.7 12 Sur 22 Sudeste 0 -- -- 65
2019-04-05 17:00:00 19 13 Sudeste 22 Sudeste 0 -- -- 60
2019-04-05 16:00:00 19.3 10 Sudeste 26 Sur 0 -- -- 59
2019-04-05 15:00:00 21 13 Sur -- -- -- -- -- 57
2019-04-05 14:00:00 -- -- -- -- -- -- -- -- --
2019-04-05 13:00:00 -- -- -- -- -- -- -- -- --
2019-04-05 12:00:00 -- -- -- -- -- -- -- -- --
2019-04-05 11:00:00 17.8 7 Sur 15 Sur 0 -- -- 62
2019-04-05 10:00:00 16.9 5 Sudoeste 17 Oeste 0 -- -- 68
2019-04-05 09:00:00 13.9 5 Nordeste 17 Nordeste 0 -- -- 72
2019-04-05 08:00:00 12.9 7 Oeste 23 Noroeste 0 -- -- 76
2019-04-05 07:00:00 12.9 5 Noroeste 13 Noroeste 0 -- -- 73
2019-04-05 06:00:00 12.7 2 Noroeste 10 Norte 0 -- -- 78
2019-04-05 05:00:00 12.9 8 Oeste 15 Norte 0 -- -- 77
2019-04-05 04:00:00 13.4 6 Noroeste 16 Norte 0 -- -- 77
2019-04-05 03:00:00 13.7 5 Norte 21 Norte 0 -- -- 76
2019-04-05 02:00:00 13.8 7 Noroeste 18 Nordeste 0 -- -- 69
2019-04-05 01:00:00 14 4 Noroeste 30 Norte 0 -- -- 73
2019-04-05 00:00:00 14.3 17 Norte 33 Norte 0 -- -- 73
2019-04-04 23:00:00 14.6 22 Norte 33 Norte 0 -- -- 69
2019-04-04 22:00:00 14.9 17 Norte 37 Norte 0 -- -- 68
2019-04-04 21:00:00 15.2 22 Norte 34 Noroeste 0 -- -- 66
2019-04-04 20:00:00 15.7 12 Norte 34 Norte 0 -- -- 70
2019-04-04 19:00:00 17.5 4 Sudoeste 15 Sur 0 -- -- 69
2019-04-04 18:00:00 17.6 7 Sur 47 Norte 0 -- -- 69
2019-04-04 17:00:00 18.1 27 Norte 47 Norte 0 -- -- 60
2019-04-04 16:00:00 18.1 28 Norte 49 Nordeste 0 -- -- 62
2019-04-04 15:00:00 19.5 22 Norte 39 Norte 0 -- -- 53
2019-04-04 14:00:00 19.1 12 Nordeste 26 Norte 0 -- -- 61
2019-04-04 13:00:00 17.3 14 Norte 34 Norte 0 -- -- 66
2019-04-04 12:00:00 18.8 18 Nordeste 36 Nordeste 0 -- -- 62
2019-04-04 11:00:00 18.7 19 Nordeste 28 Nordeste 0 -- -- 62
2019-04-04 10:00:00 16.9 8 Nordeste 14 Nordeste 0 -- -- 67
2019-04-04 09:00:00 14.5 3 Norte 13 Norte 0 -- -- 77
2019-04-04 08:00:00 11.8 5 Noroeste 12 Noroeste 0 -- -- 85
2019-04-04 07:00:00 12 9 Noroeste 15 Noroeste 0 -- -- 83
2019-04-04 06:00:00 11.9 9 Norte 13 Norte 0 -- -- 84
2019-04-04 05:00:00 12.2 4 Norte 9 Norte 0 -- -- 83
2019-04-04 04:00:00 12.6 6 Noroeste 23 Sudoeste 1.6 -- -- 85
2019-04-04 03:00:00 13.8 8 Oeste 12 Sudoeste 0.2 -- -- 79
2019-04-04 02:00:00 13.3 9 Norte 13 Norte 0 -- -- 78
2019-04-04 01:00:00 13.6 7 Noroeste 11 Noroeste 0 -- -- 76
2019-04-04 00:00:00 14.4 7 Oeste 14 Oeste 0 -- -- 78
2019-04-03 23:00:00 14.3 6 Oeste 13 Oeste 0 -- -- 82
2019-04-03 22:00:00 14.7 4 Oeste 6 Nordeste 0 -- -- 81
2019-04-03 21:00:00 15.6 0 Calma 7 Nordeste 0 -- -- 78
2019-04-03 20:00:00 16.1 5 Nordeste 13 Nordeste 0 -- -- 75
2019-04-03 19:00:00 17.1 7 Nordeste 17 Nordeste 0 -- -- 73
2019-04-03 18:00:00 17.9 10 Nordeste 19 Este 0 -- -- 69
2019-04-03 17:00:00 17.7 13 Este 23 Este 0.2 -- -- 72
2019-04-03 16:00:00 18 8 Este 26 Sudeste 0 -- -- 74
2019-04-03 15:00:00 18.9 8 Este 19 Este 0 -- -- 71
2019-04-03 14:00:00 16.4 14 Nordeste 23 Nordeste 0 -- -- 82
2019-04-03 13:00:00 14.7 13 Norte 22 Nordeste 7.4 -- -- 94
2019-04-03 12:00:00 15.8 8 Nordeste 15 Nordeste 2.2 -- -- 90
2019-04-03 11:00:00 15.7 4 Noroeste 12 Nordeste 5.8 -- -- 91
2019-04-03 10:00:00 15.6 5 Nordeste 8 Nordeste 0.4 -- -- 90
2019-04-03 09:00:00 15.4 0 Calma 4 Este 0.4 -- -- 91
2019-04-03 08:00:00 15.3 0 Calma 7 Sudoeste 0 -- -- 92
2019-04-03 07:00:00 15.2 3 Sudoeste 5 Sudoeste 0 -- -- 91
2019-04-03 06:00:00 15 3 Sur 10 Sur 0 -- -- 90
2019-04-03 05:00:00 15.1 7 Sur 10 Sur 0 -- -- 90
2019-04-03 04:00:00 15 3 Oeste 10 Sudoeste 0 -- -- 87
2019-04-03 03:00:00 15.6 3 Oeste 5 Sudoeste 0 -- -- 87
2019-04-03 02:00:00 15.7 2 Sudoeste 5 Sur 0 -- -- 86
2019-04-03 01:00:00 15.9 3 Sur 6 Sur 0 -- -- 86
2019-04-03 00:00:00 15.8 4 Sudoeste 9 Sur 0 -- -- 85
2019-04-02 23:00:00 16.1 7 Sur 10 Sur 0 -- -- 84
2019-04-02 22:00:00 16 6 Sudoeste 8 Sudoeste 0 -- -- 85
2019-04-02 21:00:00 16.2 5 Sudeste 11 Sur 0 -- -- 83
2019-04-02 20:00:00 17.3 6 Sur 19 Sur 0 -- -- 80
2019-04-02 19:00:00 17.4 12 Sudeste 21 Sudeste 0 -- -- 78
2019-04-02 18:00:00 18.7 8 Sudeste 21 Este 0 -- -- 73
2019-04-02 17:00:00 20.2 13 Nordeste 22 Sudeste 0 -- -- 62
2019-04-02 16:00:00 20.9 10 Sudeste 22 Este 0 -- -- 60
2019-04-02 15:00:00 21.2 13 Sur 22 Sur 0 -- -- 56
2019-04-02 14:00:00 20.8 11 Sudeste 22 Sur 0 -- -- 56
2019-04-02 13:00:00 19.9 12 Sudeste 21 Sur 0 -- -- 65
2019-04-02 12:00:00 19.4 9 Sur 17 Sudeste 0 -- -- 66
2019-04-02 11:00:00 17.4 4 Sur 12 Oeste 0 -- -- 71
2019-04-02 10:00:00 16.4 4 Sur 9 Sudeste 0 -- -- 80
2019-04-02 09:00:00 15.3 3 Sudeste 10 Oeste 0 -- -- 87
2019-04-02 08:00:00 14.1 4 Oeste 12 Sudeste 0 -- -- 89
2019-04-02 07:00:00 13.6 8 Noroeste 12 Noroeste 0 -- -- 85
2019-04-02 06:00:00 13.9 4 Noroeste 9 Norte 0 -- -- 90
2019-04-02 05:00:00 13.9 7 Norte 14 Norte 0 -- -- 88
2019-04-02 04:00:00 13.9 13 Norte 16 Norte 0 -- -- 85
2019-04-02 03:00:00 13.6 10 Norte 14 Norte 0 -- -- 82
2019-04-02 02:00:00 13.6 7 Norte 12 Norte 0 -- -- 77
2019-04-02 01:00:00 13.7 6 Norte 13 Norte 0 -- -- 78
2019-04-02 00:00:00 13.6 5 Noroeste 8 Norte 0 -- -- 83
2019-04-01 23:00:00 13.6 5 Norte 8 Norte 0 -- -- 86
2019-04-01 22:00:00 14 5 Norte 11 Norte 0 -- -- 88
2019-04-01 21:00:00 14.4 5 Norte 8 Norte 0.2 -- -- 88
2019-04-01 20:00:00 15.5 3 Nordeste 7 Sudeste 0 -- -- 84
2019-04-01 19:00:00 15.9 0 Calma 11 Sudeste 0 -- -- 81
2019-04-01 18:00:00 15.9 7 Sudeste 14 Sudeste 0 -- -- 81
2019-04-01 17:00:00 16 3 Sur 7 Sur 0 -- -- 84
2019-04-01 16:00:00 15.4 3 Norte 12 Norte 0 -- -- 86
2019-04-01 15:00:00 15.3 9 Nordeste 13 Norte 1.2 -- -- 90
2019-04-01 14:00:00 15.5 8 Nordeste 20 Nordeste 0.2 -- -- 88
2019-04-01 13:00:00 17.1 12 Este 23 Este 0 -- -- 76
2019-04-01 12:00:00 18.3 12 Este 19 Sudeste 0 -- -- 72
2019-04-01 11:00:00 18.3 4 Sudeste 10 Nordeste 0 -- -- 68
2019-04-01 10:00:00 16.9 5 Sur 9 Sur 0 -- -- 72
2019-04-01 09:00:00 14.4 0 Calma 6 Noroeste 0 -- -- 81
2019-04-01 08:00:00 12.8 5 Noroeste 6 Noroeste 0.2 -- -- 83
2019-04-01 07:00:00 12.9 0 Calma 9 Norte 0 -- -- 82
2019-04-01 06:00:00 13 2 Norte 4 Noroeste 0 -- -- 83
2019-04-01 05:00:00 13.3 3 Noroeste 6 Noroeste 0 -- -- 82
2019-04-01 04:00:00 13.3 5 Nordeste 12 Norte 0 -- -- 82
2019-04-01 03:00:00 13.7 5 Norte 13 Norte 0 -- -- 78
2019-04-01 02:00:00 13.9 0 Calma 8 Noroeste 0 -- -- 82
2019-04-01 01:00:00 14.6 5 Oeste 24 Noroeste 0 -- -- 72
2019-04-01 00:00:00 13.7 13 Norte 19 Norte 0 -- -- 81
2019-03-31 23:00:00 14.1 3 Norte 8 Noroeste 0 -- -- 87
2019-03-31 22:00:00 14.7 5 Norte 11 Nordeste 0 -- -- 85
2019-03-31 21:00:00 15.3 8 Nordeste 16 Nordeste 0 -- -- 83
2019-03-31 20:00:00 16.2 10 Nordeste 15 Nordeste 0 -- -- 78
2019-03-31 19:00:00 16.9 8 Este 17 Este 0 -- -- 82
2019-03-31 18:00:00 18 10 Este 15 Nordeste 0 -- -- 80
2019-03-31 17:00:00 16.6 6 Nordeste 13 Este 1.2 -- -- 90
2019-03-31 16:00:00 16.3 5 Sudeste 18 Sudeste 0 -- -- 81
2019-03-31 15:00:00 17 12 Sudeste 22 Sur 0 -- -- 69
2019-03-31 14:00:00 18.6 12 Sudeste 23 Sudeste 0 -- -- 60
2019-03-31 13:00:00 18.8 14 Sur 26 Sur 0 -- -- 63
2019-03-31 12:00:00 18.8 14 Sur 25 Sur 0 -- -- 63
2019-03-31 11:00:00 16.6 7 Sur 17 Sur 0 -- -- 74
2019-03-31 10:00:00 16.3 10 Sur 16 Sur 0 -- -- 82
2019-03-31 09:00:00 13.7 6 Oeste 11 Oeste 0 -- -- 87
2019-03-31 08:00:00 11.8 8 Oeste 10 Oeste 0 -- -- 87
2019-03-31 07:00:00 11.4 3 Noroeste 5 Noroeste 0 -- -- 88
2019-03-31 06:00:00 11.3 3 Norte 10 Norte 0 -- -- 85
2019-03-31 05:00:00 11.5 4 Noroeste 7 Noroeste 0 -- -- 88
2019-03-31 04:00:00 11.7 6 Norte 11 Norte 0 -- -- 84
2019-03-31 00:00:00 12.4 3 Noroeste 11 Norte 0 -- -- 87
2019-03-30 23:00:00 12.3 8 Norte 10 Norte 0 -- -- 88
2019-03-30 22:00:00 13 4 Noroeste 9 Norte 0 -- -- 88
2019-03-30 21:00:00 13.5 5 Noroeste 11 Norte 0 -- -- 88
2019-03-30 20:00:00 14.4 5 Norte 9 Nordeste 0 -- -- 86
2019-03-30 19:00:00 14.9 6 Norte 13 Norte 0 -- -- 87
2019-03-30 18:00:00 15.2 11 Norte 14 Norte 0.2 -- -- 88
2019-03-30 17:00:00 15.1 3 Norte 8 Norte 1 -- -- 87
2019-03-30 16:00:00 14 7 Norte 20 Norte 1.6 -- -- 87
2019-03-30 15:00:00 14.2 7 Norte 12 Norte 2 -- -- 88
2019-03-30 14:00:00 14.2 7 Este 20 Nordeste 4.8 -- -- 86
2019-03-30 13:00:00 15.1 12 Nordeste 31 Nordeste 3.6 -- -- 87
2019-03-30 12:00:00 17.2 18 Nordeste 33 Nordeste 0 -- -- 71
2019-03-30 11:00:00 18.5 19 Nordeste 29 Nordeste 0 -- -- 66
2019-03-30 10:00:00 16.9 15 Nordeste 30 Norte 0 -- -- 69
2019-03-30 09:00:00 16 18 Norte 28 Norte 0 -- -- 72
2019-03-30 08:00:00 13.8 3 Norte 15 Norte 0 -- -- 77
2019-03-30 07:00:00 12.1 12 Norte 15 Norte 0 -- -- 76
2019-03-30 06:00:00 12.3 12 Norte 16 Norte 0 -- -- 75
2019-03-30 05:00:00 11.8 4 Noroeste 8 Noroeste 0 -- -- 84
2019-03-30 04:00:00 12.3 4 Noroeste 10 Norte 0 -- -- 87
2019-03-30 03:00:00 12 8 Norte 10 Norte 0 -- -- 86
2019-03-30 02:00:00 12.6 5 Noroeste 6 Noroeste 0 -- -- 82
2019-03-30 01:00:00 12.7 3 Noroeste 8 Norte 0 -- -- 81
2019-03-30 00:00:00 12.8 5 Norte 11 Noroeste 0 -- -- 81
2019-03-29 23:00:00 13.6 6 Oeste 9 Oeste 0 -- -- 79
2019-03-29 22:00:00 13.2 3 Oeste 9 Norte 0 -- -- 78
2019-03-29 21:00:00 13.8 6 Noroeste 17 Norte 0 -- -- 78
2019-03-29 20:00:00 14.8 11 Norte 19 Norte 0 -- -- 80
2019-03-29 19:00:00 15.3 13 Norte 22 Norte 0 -- -- 77
2019-03-29 18:00:00 15.4 16 Norte 32 Norte 0 -- -- 79
2019-03-29 17:00:00 15.9 21 Norte 33 Norte 3.4 -- -- 83
2019-03-29 16:00:00 15.5 21 Norte 33 Sur 0.2 -- -- 87
2019-03-29 15:00:00 17.3 18 Sudeste 29 Sudeste 0 -- -- 80
2019-03-29 14:00:00 18.2 18 Sur 30 Sur 0 -- -- 73
2019-03-29 13:00:00 17.7 17 Sudeste 28 Sudeste 0 -- -- 76
2019-03-29 12:00:00 18.6 17 Sudeste 27 Sudeste 0 -- -- 74
2019-03-29 11:00:00 18.4 8 Sudeste 21 Sur 0 -- -- 70
2019-03-29 10:00:00 17.7 6 Sur 13 Sur 0 -- -- 70
2019-03-29 09:00:00 16.7 3 Nordeste 6 Este 0 -- -- 76
2019-03-29 08:00:00 13.8 2 Noroeste 9 Noroeste 0 -- -- 85
2019-03-29 07:00:00 11.8 9 Norte 13 Norte 0 -- -- 83
2019-03-29 06:00:00 11.9 8 Norte 13 Norte 0 -- -- 84
2019-03-29 05:00:00 12.1 10 Norte 14 Norte 0 -- -- 84
2019-03-29 04:00:00 12.5 11 Norte 17 Norte 0 -- -- 85
2019-03-29 03:00:00 12.5 13 Norte 16 Norte 0 -- -- 81
2019-03-29 02:00:00 12.1 4 Noroeste 12 Norte 0 -- -- 84
2019-03-29 01:00:00 13 10 Norte 15 Noroeste 0 -- -- 84
2019-03-29 00:00:00 14.1 10 Norte 14 Norte 0 -- -- 90
2019-03-28 23:00:00 14.2 9 Norte 15 Norte 0 -- -- 88
2019-03-28 22:00:00 13.9 9 Norte 14 Nordeste 0 -- -- 87
2019-03-28 21:00:00 13.9 8 Nordeste 12 Norte 0.2 -- -- 87
2019-03-28 20:00:00 14.7 8 Norte 13 Norte 0 -- -- 92
2019-03-28 19:00:00 15 7 Nordeste 13 Norte 1.4 -- -- 93
2019-03-28 18:00:00 15.1 9 Norte 15 Nordeste 2.4 -- -- 92
2019-03-28 17:00:00 15.6 9 Nordeste 14 Este 0 -- -- 90
2019-03-28 16:00:00 16.1 6 Nordeste 15 Nordeste 0.2 -- -- 89
2019-03-28 15:00:00 16.2 8 Nordeste 14 Nordeste 0 -- -- 86
2019-03-28 14:00:00 17 10 Nordeste 18 Este 0 -- -- 80
2019-03-28 13:00:00 18.4 10 Este 18 Este 0 -- -- 74
2019-03-28 12:00:00 18.1 11 Nordeste 20 Nordeste 0 -- -- 73
2019-03-28 11:00:00 18.4 10 Nordeste 19 Nordeste 0 -- -- 74
2019-03-28 10:00:00 18.5 11 Este 18 Nordeste 0 -- -- 70
2019-03-28 09:00:00 17.2 10 Nordeste 17 Este 0 -- -- 75
2019-03-28 08:00:00 14.7 5 Norte 17 Noroeste 0 -- -- 72
2019-03-28 07:00:00 12.9 13 Norte 21 Norte 0 -- -- 73
2019-03-28 06:00:00 13 13 Norte 18 Norte 0 -- -- 76
2019-03-28 05:00:00 12.7 9 Norte 17 Noroeste 0 -- -- 75
2019-03-28 04:00:00 13.3 13 Norte 18 Noroeste 0 -- -- 73
2019-03-28 03:00:00 13.9 11 Norte 24 Norte 0 -- -- 75
2019-03-28 02:00:00 14.4 17 Norte 24 Norte 0 -- -- 75
2019-03-28 01:00:00 14 14 Norte 19 Norte 0 -- -- 80
2019-03-28 00:00:00 14 10 Norte 22 Norte 0 -- -- 83
2019-03-27 23:00:00 14.3 14 Norte 22 Norte 0 -- -- 83
2019-03-27 22:00:00 14.4 13 Norte 26 Norte 0 -- -- 84
2019-03-27 21:00:00 14.6 10 Norte 24 Norte 0 -- -- 87
2019-03-27 20:00:00 15.1 7 Norte 19 Nordeste 0 -- -- 88
2019-03-27 19:00:00 15.5 14 Nordeste 19 Nordeste 0 -- -- 90
2019-03-27 18:00:00 15.7 14 Nordeste 25 Nordeste 0 -- -- 88
2019-03-27 17:00:00 16.4 12 Nordeste 20 Nordeste 0 -- -- 90
2019-03-27 16:00:00 16.4 10 Nordeste 14 Norte 5.2 -- -- 93
2019-03-27 15:00:00 15.2 2 Norte 15 Este 29.2 -- -- 94
2019-03-27 14:00:00 15.3 6 Este 21 Sudeste 16.2 -- -- 92
2019-03-27 13:00:00 15.7 10 Sudeste 23 Sur 3.6 -- -- 92
2019-03-27 12:00:00 16.5 21 Sur 32 Sur 0.4 -- -- 85
2019-03-27 11:00:00 18.4 8 Sur 15 Sur 0 -- -- 75
2019-03-27 10:00:00 16.6 4 Sudeste 8 Sudeste 0 -- -- 76
2019-03-27 09:00:00 16 3 Sur 6 Sudoeste 0 -- -- 77
2019-03-27 08:00:00 14.3 3 Oeste 8 Noroeste 0 -- -- 84
2019-03-27 07:00:00 12.4 3 Norte 10 Noroeste 0 -- -- 85
2019-03-27 06:00:00 12.3 5 Noroeste 10 Noroeste 0 -- -- 85
2019-03-27 05:00:00 12.5 5 Noroeste 8 Norte 0 -- -- 84
2019-03-27 04:00:00 12.5 4 Norte 7 Norte 0 -- -- 82
2019-03-27 03:00:00 13 4 Oeste 10 Noroeste 0 -- -- 82
2019-03-27 02:00:00 13.2 3 Norte 6 Noroeste 0 -- -- 80
2019-03-27 01:00:00 12.9 3 Noroeste 10 Noroeste 0 -- -- 82
2019-03-27 00:00:00 13.3 4 Oeste 11 Noroeste 0 -- -- 83
2019-03-26 23:00:00 13.3 2 Noroeste 8 Noroeste 0 -- -- 85
2019-03-26 22:00:00 13.5 5 Oeste 9 Oeste 0 -- -- 88
2019-03-26 21:00:00 14.1 4 Oeste 8 Norte 0 -- -- 86
2019-03-26 20:00:00 14.8 6 Norte 11 Norte 0 -- -- 82
2019-03-26 19:00:00 15.2 3 Norte 10 Sur 0.2 -- -- 84
2019-03-26 18:00:00 15.4 6 Sur 14 Sur 0.2 -- -- 85
2019-03-26 17:00:00 16.3 6 Sur 12 Sudeste 0 -- -- 81
2019-03-26 16:00:00 16.5 3 Este 10 Nordeste 0.2 -- -- 80
2019-03-26 15:00:00 16.7 3 Sudeste 11 Sur 0 -- -- 74
2019-03-26 14:00:00 15.7 6 Sudoeste 13 Oeste 0.4 -- -- 87
2019-03-26 13:00:00 14.8 0 Calma 23 Nordeste 1.8 -- -- 88
2019-03-26 12:00:00 15.8 17 Nordeste 26 Nordeste 0 -- -- 82
2019-03-26 11:00:00 17.9 10 Sur 20 Sur 0 -- -- 65
2019-03-26 10:00:00 17.3 6 Sudeste 15 Sur 0.2 -- -- 65
2019-03-26 09:00:00 16.7 7 Sur 12 Sur 0 -- -- 69
2019-03-26 08:00:00 14 6 Oeste 10 Oeste 0 -- -- 79
2019-03-26 07:00:00 12 4 Noroeste 7 Noroeste 0 -- -- 85
2019-03-26 06:00:00 11.8 5 Noroeste 12 Noroeste 0 -- -- 84
2019-03-26 05:00:00 11.6 10 Norte 12 Norte 0 -- -- 83
2019-03-26 04:00:00 11.7 8 Norte 11 Norte 0 -- -- 85
2019-03-26 03:00:00 12.3 7 Norte 12 Norte 0 -- -- 86
2019-03-26 02:00:00 12.2 4 Norte 9 Norte 0 -- -- 87
2019-03-26 01:00:00 12.8 8 Norte 13 Norte 0 -- -- 85
2019-03-26 00:00:00 13 5 Sudoeste 15 Sudoeste 0 -- -- 92
2019-03-25 23:00:00 13.3 5 Sudoeste 15 Sur 0 -- -- 94
2019-03-25 22:00:00 13.9 6 Sudoeste 14 Sur 0 -- -- 94
2019-03-25 21:00:00 14 8 Sur 17 Sur 0 -- -- 93
2019-03-25 20:00:00 14 12 Sur 19 Sur 0 -- -- 90
2019-03-25 19:00:00 14.2 14 Sur 21 Sur 0 -- -- 86
2019-03-25 18:00:00 15 18 Sur 25 Sur 0 -- -- 82
2019-03-25 17:00:00 15.5 15 Sur 26 Sur 0 -- -- 80
2019-03-25 16:00:00 16.5 5 Sur 27 Sur 4 -- -- 82
2019-03-25 15:00:00 14.2 17 Sur 31 Sur 3 -- -- 90
2019-03-25 14:00:00 17.4 24 Sur 30 Sur 0 -- -- 69
2019-03-25 13:00:00 19.3 13 Sudoeste 29 Sur 0 -- -- 51
2019-03-25 12:00:00 18.1 23 Sur 35 Sur 0 -- -- 64
2019-03-25 11:00:00 18.8 22 Sur 32 Sudoeste 0 -- -- 59
2019-03-25 10:00:00 16.3 16 Sur 24 Sur 0 -- -- 64
2019-03-25 09:00:00 14.4 10 Sur 17 Sudoeste 0 -- -- 75
2019-03-25 08:00:00 13.2 5 Sudoeste 10 Sur 0 -- -- 80
2019-03-25 07:00:00 12.6 0 Calma 5 Norte 0 -- -- 83
2019-03-25 06:00:00 12.1 4 Norte 7 Noroeste 0 -- -- 81
2019-03-25 05:00:00 12.3 4 Norte 6 Norte 0 -- -- 78
2019-03-25 04:00:00 12.5 3 Norte 5 Norte 0 -- -- 84
2019-03-25 03:00:00 13 3 Oeste 4 Oeste 0 -- -- 85
2019-03-25 02:00:00 12.9 0 Calma 4 Norte 0 -- -- 85
2019-03-25 01:00:00 13.4 2 Oeste 8 Sudoeste 0 -- -- 85
2019-03-25 00:00:00 14.1 3 Sudoeste 5 Sur 0 -- -- 81
2019-03-24 23:00:00 14.4 0 Calma 8 Sudoeste 0 -- -- 81
2019-03-24 22:00:00 14.9 0 Calma 8 Nordeste 0 -- -- 80
2019-03-24 21:00:00 15.3 5 Nordeste 14 Norte 0 -- -- 75
2019-03-24 20:00:00 15.9 8 Nordeste 17 Norte 0 -- -- 72
2019-03-24 19:00:00 16.1 11 Norte 24 Norte 0 -- -- 70
2019-03-24 18:00:00 16.9 15 Nordeste 24 Nordeste 0 -- -- 68
2019-03-24 17:00:00 17.7 14 Nordeste 23 Nordeste 0 -- -- 64
2019-03-24 16:00:00 18.4 13 Nordeste 26 Este 0 -- -- 62
2019-03-24 15:00:00 19.8 13 Nordeste 29 Nordeste 0 -- -- 57
2019-03-24 14:00:00 21.2 17 Nordeste 31 Este 0 -- -- 53
2019-03-24 13:00:00 20.1 20 Nordeste 32 Nordeste 0 -- -- 55
2019-03-24 12:00:00 20.6 15 Nordeste 26 Nordeste 0 -- -- 55
2019-03-24 11:00:00 19.2 14 Nordeste 26 Nordeste 0 -- -- 54
2019-03-24 10:00:00 19.2 11 Nordeste 22 Nordeste 0 -- -- 52
2019-03-24 09:00:00 17.4 6 Este 18 Nordeste 0 -- -- 56
2019-03-24 08:00:00 15.2 3 Oeste 13 Norte 0 -- -- 67
2019-03-24 07:00:00 13.3 6 Nordeste 17 Noroeste 0 -- -- 69
2019-03-24 06:00:00 13.4 10 Norte 31 Norte 0 -- -- 71
2019-03-24 05:00:00 13.8 20 Norte 34 Norte 0 -- -- 72
2019-03-24 04:00:00 14.1 18 Norte 34 Norte 0 -- -- 67
2019-03-24 03:00:00 14.2 20 Norte 38 Norte 0 -- -- 68
2019-03-24 02:00:00 14.3 21 Norte 41 Norte 0 -- -- 63
2019-03-24 01:00:00 14.4 27 Norte 45 Norte 0 -- -- 65
2019-03-24 00:00:00 14.6 30 Norte 48 Norte 0 -- -- 64
2019-03-23 23:00:00 14.9 32 Norte 58 Norte 0 -- -- 60
2019-03-23 22:00:00 15.3 34 Norte 55 Norte 0 -- -- 56
2019-03-23 21:00:00 16.4 16 Norte 32 Norte 0 -- -- 53
2019-03-23 20:00:00 16.5 5 Noroeste 24 Norte 0 -- -- 63
2019-03-23 19:00:00 17.6 15 Norte 49 Norte 0 -- -- 61
2019-03-23 18:00:00 17.5 33 Norte 60 Norte 0 -- -- 60
2019-03-23 17:00:00 18.2 37 Norte 62 Norte 0 -- -- 59
2019-03-23 16:00:00 18.7 42 Norte 63 Norte 0 -- -- 55
2019-03-23 15:00:00 19.3 41 Norte 62 Norte 0 -- -- 55
2019-03-23 14:00:00 20.1 44 Nordeste 67 Nordeste 0 -- -- 55
2019-03-23 13:00:00 20.7 40 Norte 62 Norte 0 -- -- 52
2019-03-23 12:00:00 20.1 40 Norte 63 Norte 0 -- -- 52
2019-03-23 11:00:00 19.1 38 Norte 57 Norte 0 -- -- 58
2019-03-23 10:00:00 18.4 37 Norte 63 Norte 0 -- -- 58
2019-03-23 09:00:00 17 36 Norte 56 Norte 0 -- -- 59
2019-03-23 08:00:00 15.4 34 Norte 59 Norte 0 -- -- 65
2019-03-23 07:00:00 14.8 43 Norte 72 Nordeste 0 -- -- 70
2019-03-23 06:00:00 14.8 43 Norte 73 Norte 0 -- -- 71
2019-03-23 05:00:00 14.9 41 Norte 73 Norte 0 -- -- 70
2019-03-23 04:00:00 15.9 42 Norte 67 Norte 0 -- -- 59
2019-03-23 03:00:00 15.5 35 Norte 60 Norte 0 -- -- 60
2019-03-23 02:00:00 14.8 31 Norte 50 Norte 0 -- -- 73
2019-03-23 01:00:00 16.2 40 Norte 70 Norte 0 -- -- 60
2019-03-23 00:00:00 15.2 45 Norte 72 Norte 0 -- -- 70
2019-03-22 23:00:00 18.9 37 Norte 70 Norte 0 -- -- 26
2019-03-22 22:00:00 17.9 42 Norte 75 Norte 0 -- -- 41
2019-03-22 21:00:00 15.9 54 Norte 81 Norte 0 -- -- 63
2019-03-22 20:00:00 16 48 Norte 68 Norte 0 -- -- 63
2019-03-22 19:00:00 16.2 46 Norte 72 Norte 0 -- -- 67
2019-03-22 18:00:00 17.7 45 Norte 70 Norte 0 -- -- 63
2019-03-22 17:00:00 19.2 42 Norte 63 Norte 0 -- -- 57
2019-03-22 16:00:00 20.9 37 Norte 60 Norte 0 -- -- 52
2019-03-22 15:00:00 21.9 34 Norte 57 Norte 0 -- -- 47
2019-03-22 14:00:00 21.7 38 Norte 59 Norte 0 -- -- 46
2019-03-22 13:00:00 20.1 41 Norte 64 Norte 0 -- -- 52
2019-03-22 12:00:00 18.9 34 Nordeste 59 Norte 0 -- -- 57
2019-03-22 11:00:00 16.7 39 Norte 68 Nordeste 0 -- -- 58
2019-03-22 10:00:00 17 45 Norte 77 Norte 0 -- -- 59
2019-03-22 09:00:00 14.6 43 Norte 76 Norte 0 -- -- 68
2019-03-22 08:00:00 14.4 41 Norte 71 Norte 0 -- -- 70
2019-03-22 07:00:00 14.3 49 Norte 75 Norte 0 -- -- 68
2019-03-22 06:00:00 14.4 50 Norte 77 Nordeste 0 -- -- 68
2019-03-22 05:00:00 14.7 51 Norte 78 Norte 0 -- -- 66
2019-03-22 04:00:00 14.5 44 Norte 73 Norte 0 -- -- 68
2019-03-22 03:00:00 14.4 44 Norte 69 Norte 0 -- -- 70
2019-03-22 02:00:00 14.6 43 Norte 70 Nordeste 0 -- -- 69
2019-03-22 01:00:00 14.6 39 Norte 65 Norte 0 -- -- 69
2019-03-22 00:00:00 14.6 36 Norte 58 Norte 0 -- -- 70
2019-03-21 23:00:00 14.6 40 Norte 63 Nordeste 0 -- -- 71
2019-03-21 22:00:00 14.9 40 Norte 62 Norte 0 -- -- 69
2019-03-21 21:00:00 15.1 42 Norte 59 Norte 0 -- -- 71
2019-03-21 20:00:00 15.6 41 Norte 61 Norte 0 -- -- 74
2019-03-21 19:00:00 16.1 39 Norte 55 Norte 0 -- -- 72
2019-03-21 18:00:00 17.7 42 Norte 58 Norte 0 -- -- 68
2019-03-21 17:00:00 20 38 Norte 56 Norte 0 -- -- 61
2019-03-21 16:00:00 21.7 36 Nordeste 50 Norte 0 -- -- 54
2019-03-21 15:00:00 23.4 33 Nordeste 51 Norte 0 -- -- 38
2019-03-21 14:00:00 23.5 28 Nordeste 54 Nordeste 0 -- -- 39
2019-03-21 13:00:00 23.1 34 Nordeste 53 Nordeste 0 -- -- 36
2019-03-21 12:00:00 21.8 34 Nordeste 52 Nordeste 0 -- -- 36
2019-03-21 11:00:00 19.7 37 Nordeste 55 Nordeste 0 -- -- 59
2019-03-21 10:00:00 19.2 33 Norte 49 Norte 0 -- -- 51
2019-03-21 09:00:00 17.9 36 Norte 57 Nordeste 0 -- -- 57
2019-03-21 08:00:00 16.8 34 Norte 55 Norte 0 -- -- 55
2019-03-21 07:00:00 16 29 Norte 50 Norte 0 -- -- 50
2019-03-21 06:00:00 15 32 Norte 51 Norte 0 -- -- 63
2019-03-21 05:00:00 15.7 32 Norte 46 Norte 0 -- -- 54
2019-03-21 04:00:00 17.1 33 Norte 46 Norte 0 -- -- 35
2019-03-21 03:00:00 15.3 28 Norte 59 Norte 0 -- -- 50
2019-03-21 02:00:00 14.4 38 Norte 55 Norte 0 -- -- 74
2019-03-21 01:00:00 14.4 31 Norte 49 Norte 0 -- -- 75
2019-03-21 00:00:00 14.5 26 Norte 46 Norte 0 -- -- 76